Time;durP1;ratioP1;P1;durP2;ratioP2;P2;SDS_P1;SDS_P2;PMS_P1;PMS_P2;Temp;Humidity;BMP_temperature;BMP_pressure;BME280_temperature;BME280_humidity;BME280_pressure;Samples;Min_cycle;Max_cycle;Signal;HPM_P1;HPM_P2
2024/04/08 00:02:20;;;;;;;;;;;;;;;;;;5049040;28;19963;-62
2024/04/08 00:04:46;;;;;;;;;;;;;;;;;;5053757;28;19933;-62
2024/04/08 00:07:12;;;;;;;;;;;;;;;;;;5054744;28;20313;-62
2024/04/08 00:09:38;;;;;;;;;;;;;;;;;;5054082;28;20387;-62
2024/04/08 00:12:04;;;;;;;;;;;;;;;;;;5054216;28;19999;-62
2024/04/08 00:14:29;;;;;;;;;;;;;;;;;;5053603;28;19944;-62
2024/04/08 00:16:55;;;;;;;;;;;;;;;;;;5052949;28;20334;-62
2024/04/08 00:19:21;;;;;;;;;;;;;;;;;;5049519;28;20335;-62
2024/04/08 00:21:47;;;;;;;;;;;;;;;;;;5051347;28;19921;-62
2024/04/08 00:24:14;;;;;;;;;;;;;;;;;;5053510;28;20393;-62
2024/04/08 00:26:39;;;;;;;;;;;;;;;;;;5053101;28;20346;-61
2024/04/08 00:29:05;;;;;;;;;;;;;;;;;;5051584;28;19968;-62
2024/04/08 00:31:31;;;;;;;;;;;;;;;;;;5052530;28;19932;-62
2024/04/08 00:33:57;;;;;;;;;;;;;;;;;;5052718;28;19983;-62
2024/04/08 00:36:23;;;;;;;;;;;;;;;;;;5052625;28;19921;-62
2024/04/08 00:38:49;;;;;;;;;;;;;;;;;;5050848;28;19921;-62
2024/04/08 00:41:15;;;;;;;;;;;;;;;;;;5052523;28;20371;-62
2024/04/08 00:43:41;;;;;;;;;;;;;;;;;;5054474;28;19925;-62
2024/04/08 00:46:07;;;;;;;;;;;;;;;;;;5052518;28;19929;-61
2024/04/08 00:48:33;;;;;;;;;;;;;;;;;;5051622;28;20376;-61
2024/04/08 00:50:59;;;;;;;;;;;;;;;;;;5033865;28;20296;-61
2024/04/08 00:53:24;;;;;;;;;;;;;;;;;;5053569;28;19932;-62
2024/04/08 00:55:50;;;;;;;;;;;;;;;;;;5051234;28;19961;-62
2024/04/08 00:58:16;;;;;;;;;;;;;;;;;;5051841;28;19948;-62
2024/04/08 01:00:42;;;;;;;;;;;;;;;;;;5051737;28;20295;-62
2024/04/08 01:03:10;;;;;;;;;;;;;;;;;;5051877;28;19932;-62
2024/04/08 01:05:36;;;;;;;;;;;;;;;;;;5053225;28;19933;-62
2024/04/08 01:08:02;;;;;;;;;;;;;;;;;;5048798;28;20060;-62
2024/04/08 01:10:28;;;;;;;;;;;;;;;;;;5052782;28;19930;-62
2024/04/08 01:12:54;;;;;;;;;;;;;;;;;;5053066;28;19928;-62
2024/04/08 01:15:20;;;;;;;;;;;;;;;;;;5047848;28;20027;-62
2024/04/08 01:17:45;;;;;;;;;;;;;;;;;;5051076;28;19932;-62
2024/04/08 01:20:11;;;;;;;;;;;;;;;;;;5043496;28;19944;-62
2024/04/08 01:22:37;;;;;;;;;;;;;;;;;;5048811;28;19921;-63
2024/04/08 01:25:04;;;;;;;;;;;;;;;;;;5018362;28;20280;-62
2024/04/08 01:27:30;;;;;;;;;;;;;;;;;;5052964;28;20013;-62
2024/04/08 01:29:56;;;;;;;;;;;;;;;;;;5034244;28;20340;-62
2024/04/08 01:32:22;;;;;;;;;;;;;;;;;;5042789;28;20034;-62
2024/04/08 01:34:48;;;;;;;;;;;;;;;;;;5048589;28;19921;-62
2024/04/08 01:37:13;;;;;;;;;;;;;;;;;;5049763;28;19947;-62
2024/04/08 01:39:39;;;;;;;;;;;;;;;;;;5015559;28;20303;-62
2024/04/08 01:42:05;;;;;;;;;;;;;;;;;;5041235;28;19933;-62
2024/04/08 01:44:31;;;;;;;;;;;;;;;;;;5072381;28;19932;-62
2024/04/08 01:46:57;;;;;;;;;;;;;;;;;;5065899;28;19920;-62
2024/04/08 01:49:26;;;;;;;;;;;;;;;;;;5072643;28;19927;-62
2024/04/08 01:51:52;;;;;;;;;;;;;;;;;;5045362;28;19977;-62
2024/04/08 01:54:18;;;;;;;;;;;;;;;;;;5028968;28;19924;-62
2024/04/08 01:56:44;;;;;;;;;;;;;;;;;;5054109;28;19921;-62
2024/04/08 01:59:10;;;;;;;;;;;;;;;;;;5070373;28;19924;-62
2024/04/08 02:01:36;;;;;;;;;;;;;;;;;;5067487;28;19929;-62
2024/04/08 02:04:02;;;;;;;;;;;;;;;;;;5035221;28;19924;-62
2024/04/08 02:06:28;;;;;;;;;;;;;;;;;;5051412;28;19929;-62
2024/04/08 02:08:54;;;;;;;;;;;;;;;;;;5058941;28;19921;-62
2024/04/08 02:11:19;;;;;;;;;;;;;;;;;;5046993;28;19924;-62
2024/04/08 02:13:46;;;;;;;;;;;;;;;;;;5056857;28;19969;-62
2024/04/08 02:16:11;;;;;;;;;;;;;;;;;;5062226;28;20391;-62
2024/04/08 02:18:37;;;;;;;;;;;;;;;;;;5069065;28;19932;-62
2024/04/08 02:21:03;;;;;;;;;;;;;;;;;;5048371;28;19925;-61
2024/04/08 02:23:29;;;;;;;;;;;;;;;;;;5053790;28;19921;-62
2024/04/08 02:25:55;;;;;;;;;;;;;;;;;;5055052;28;20057;-61
2024/04/08 02:28:21;;;;;;;;;;;;;;;;;;5051351;28;20577;-61
2024/04/08 02:30:47;;;;;;;;;;;;;;;;;;5051945;28;19924;-61
2024/04/08 02:33:13;;;;;;;;;;;;;;;;;;5072211;28;19920;-61
2024/04/08 02:35:39;;;;;;;;;;;;;;;;;;5046714;28;19944;-61
2024/04/08 02:38:05;;;;;;;;;;;;;;;;;;5051886;28;20378;-61
2024/04/08 02:40:32;;;;;;;;;;;;;;;;;;5014058;28;19929;-61
2024/04/08 02:42:57;;;;;;;;;;;;;;;;;;5036557;28;19967;-61
2024/04/08 02:45:23;;;;;;;;;;;;;;;;;;5050686;28;19980;-61
2024/04/08 02:47:49;;;;;;;;;;;;;;;;;;5054534;28;20011;-61
2024/04/08 02:50:16;;;;;;;;;;;;;;;;;;5044925;28;19950;-61
2024/04/08 02:52:42;;;;;;;;;;;;;;;;;;5045438;28;20011;-61
2024/04/08 02:55:08;;;;;;;;;;;;;;;;;;5053507;28;20345;-62
2024/04/08 02:57:34;;;;;;;;;;;;;;;;;;5045296;28;20261;-62
2024/04/08 03:00:00;;;;;;;;;;;;;;;;;;5055631;28;19931;-62
2024/04/08 03:02:26;;;;;;;;;;;;;;;;;;5050141;28;19931;-62
2024/04/08 03:04:51;;;;;;;;;;;;;;;;;;5050796;28;19952;-62
2024/04/08 03:07:17;;;;;;;;;;;;;;;;;;5052029;28;19929;-62
2024/04/08 03:09:43;;;;;;;;;;;;;;;;;;5050472;28;20379;-62
2024/04/08 03:12:09;;;;;;;;;;;;;;;;;;5050638;28;20383;-62
2024/04/08 03:14:35;;;;;;;;;;;;;;;;;;5047795;28;19975;-62
2024/04/08 03:17:01;;;;;;;;;;;;;;;;;;5049053;28;20356;-62
2024/04/08 03:19:27;;;;;;;;;;;;;;;;;;5049864;28;19921;-62
2024/04/08 03:21:53;;;;;;;;;;;;;;;;;;5041636;28;19924;-62
2024/04/08 03:24:19;;;;;;;;;;;;;;;;;;5043188;28;19921;-62
2024/04/08 03:26:45;;;;;;;;;;;;;;;;;;5049287;28;20265;-62
2024/04/08 03:29:10;;;;;;;;;;;;;;;;;;5033589;28;19921;-62
2024/04/08 03:31:37;;;;;;;;;;;;;;;;;;5049078;28;19924;-62
2024/04/08 03:34:03;;;;;;;;;;;;;;;;;;5046755;28;20453;-62
2024/04/08 03:36:29;;;;;;;;;;;;;;;;;;5051888;28;20073;-62
2024/04/08 03:38:56;;;;;;;;;;;;;;;;;;5051478;28;19925;-62
2024/04/08 03:41:22;;;;;;;;;;;;;;;;;;5060245;28;19932;-62
2024/04/08 03:43:47;;;;;;;;;;;;;;;;;;5049733;28;20300;-62
2024/04/08 03:46:13;;;;;;;;;;;;;;;;;;5059189;28;19928;-62
2024/04/08 03:48:39;;;;;;;;;;;;;;;;;;5079582;28;19926;-62
2024/04/08 03:51:05;;;;;;;;;;;;;;;;;;5073814;28;19932;-62
2024/04/08 03:53:31;;;;;;;;;;;;;;;;;;5066572;28;19920;-62
2024/04/08 03:55:57;;;;;;;;;;;;;;;;;;5062090;28;20597;-62
2024/04/08 03:58:23;;;;;;;;;;;;;;;;;;5069590;28;19974;-62
2024/04/08 04:00:49;;;;;;;;;;;;;;;;;;5068376;28;19966;-62
2024/04/08 04:03:15;;;;;;;;;;;;;;;;;;5076505;28;20361;-62
2024/04/08 04:05:40;;;;;;;;;;;;;;;;;;5090614;28;19935;-62
2024/04/08 04:08:07;;;;;;;;;;;;;;;;;;5056204;28;19927;-62
2024/04/08 04:10:32;;;;;;;;;;;;;;;;;;5074051;28;19966;-62
2024/04/08 04:12:59;;;;;;;;;;;;;;;;;;5077555;28;19924;-62
2024/04/08 04:15:24;;;;;;;;;;;;;;;;;;5082847;28;19925;-62
2024/04/08 04:17:50;;;;;;;;;;;;;;;;;;5095118;28;19946;-62
2024/04/08 04:20:16;;;;;;;;;;;;;;;;;;5082209;28;19951;-62
2024/04/08 04:22:44;;;;;;;;;;;;;;;;;;5071786;28;20558;-62
2024/04/08 04:25:10;;;;;;;;;;;;;;;;;;5054028;28;19931;-62
2024/04/08 04:27:36;;;;;;;;;;;;;;;;;;5064498;28;19928;-62
2024/04/08 04:30:02;;;;;;;;;;;;;;;;;;5075628;28;20352;-62
2024/04/08 04:32:28;;;;;;;;;;;;;;;;;;5090821;28;19924;-62
2024/04/08 04:34:54;;;;;;;;;;;;;;;;;;5068359;28;19950;-62
2024/04/08 04:37:19;;;;;;;;;;;;;;;;;;5072989;28;20272;-62
2024/04/08 04:39:46;;;;;;;;;;;;;;;;;;5052630;28;19928;-62
2024/04/08 04:42:12;;;;;;;;;;;;;;;;;;5063317;28;20387;-62
2024/04/08 04:44:37;;;;;;;;;;;;;;;;;;5049194;28;19925;-62
2024/04/08 04:47:03;;;;;;;;;;;;;;;;;;5067105;28;19928;-62
2024/04/08 04:49:29;;;;;;;;;;;;;;;;;;5056992;28;19924;-62
2024/04/08 04:51:55;;;;;;;;;;;;;;;;;;5023065;28;20376;-62
2024/04/08 04:54:21;;;;;;;;;;;;;;;;;;5069381;28;19920;-62
2024/04/08 04:56:47;;;;;;;;;;;;;;;;;;5057024;23;20498;-65
2024/04/08 04:59:13;;;;;;;;;;;;;;;;;;5091754;28;19924;-65
2024/04/08 05:01:39;;;;;;;;;;;;;;;;;;5090764;28;20390;-65
2024/04/08 05:04:06;;;;;;;;;;;;;;;;;;5091197;28;19920;-65
2024/04/08 05:06:32;;;;;;;;;;;;;;;;;;5086270;28;19926;-65
2024/04/08 05:08:58;;;;;;;;;;;;;;;;;;5087379;28;20334;-66
2024/04/08 05:11:24;;;;;;;;;;;;;;;;;;5074314;28;19964;-64
2024/04/08 05:13:50;;;;;;;;;;;;;;;;;;5072374;28;19955;-65
2024/04/08 05:16:16;;;;;;;;;;;;;;;;;;5091903;28;20387;-65
2024/04/08 05:18:42;;;;;;;;;;;;;;;;;;5091370;28;20023;-66
2024/04/08 05:21:11;;;;;;;;;;;;;;;;;;5086438;28;19967;-65
2024/04/08 05:23:38;;;;;;;;;;;;;;;;;;5091171;28;20306;-65
2024/04/08 05:26:04;;;;;;;;;;;;;;;;;;5083866;28;20367;-65
2024/04/08 05:28:30;;;;;;;;;;;;;;;;;;5085126;28;20024;-64
2024/04/08 05:30:56;;;;;;;;;;;;;;;;;;5072575;28;19920;-64
2024/04/08 05:33:22;;;;;;;;;;;;;;;;;;5089214;28;20480;-64
2024/04/08 05:35:48;;;;;;;;;;;;;;;;;;5093023;28;19969;-64
2024/04/08 05:38:14;;;;;;;;;;;;;;;;;;5092963;28;19920;-65
2024/04/08 05:40:40;;;;;;;;;;;;;;;;;;5081084;28;20317;-66
2024/04/08 05:43:06;;;;;;;;;;;;;;;;;;5084367;28;19920;-66
2024/04/08 05:45:32;;;;;;;;;;;;;;;;;;5074888;28;20375;-66
2024/04/08 05:47:58;;;;;;;;;;;;;;;;;;5089803;28;20485;-65
2024/04/08 05:50:23;;;;;;;;;;;;;;;;;;5092047;28;19926;-65
2024/04/08 05:52:49;;;;;;;;;;;;;;;;;;5074020;28;19962;-66
2024/04/08 05:55:15;;;;;;;;;;;;;;;;;;5091948;28;19923;-65
2024/04/08 05:57:41;;;;;;;;;;;;;;;;;;5091525;28;19985;-65
2024/04/08 06:00:07;;;;;;;;;;;;;;;;;;5072049;28;19967;-65
2024/04/08 06:02:33;;;;;;;;;;;;;;;;;;5087669;28;19951;-65
2024/04/08 06:04:59;;;;;;;;;;;;;;;;;;5068187;28;19931;-64
2024/04/08 06:07:26;;;;;;;;;;;;;;;;;;5093013;28;19931;-65
2024/04/08 06:09:52;;;;;;;;;;;;;;;;;;5069155;28;19967;-65
2024/04/08 06:12:18;;;;;;;;;;;;;;;;;;5072599;28;19920;-66
2024/04/08 06:14:45;;;;;;;;;;;;;;;;;;5092420;28;19931;-65
2024/04/08 06:17:11;;;;;;;;;;;;;;;;;;5092815;28;19931;-66
2024/04/08 06:19:37;;;;;;;;;;;;;;;;;;5074071;28;19924;-66
2024/04/08 06:22:03;;;;;;;;;;;;;;;;;;5092595;28;19932;-65
2024/04/08 06:24:29;;;;;;;;;;;;;;;;;;5092479;28;19944;-65
2024/04/08 06:26:54;;;;;;;;;;;;;;;;;;5086133;28;20375;-65
2024/04/08 06:29:20;;;;;;;;;;;;;;;;;;5091151;28;19920;-65
2024/04/08 06:31:46;;;;;;;;;;;;;;;;;;5091922;28;19926;-65
2024/04/08 06:34:12;;;;;;;;;;;;;;;;;;5074056;28;19924;-64
2024/04/08 06:36:38;;;;;;;;;;;;;;;;;;5059371;28;19920;-64
2024/04/08 06:39:04;;;;;;;;;;;;;;;;;;5072026;28;19982;-65
2024/04/08 06:41:30;;;;;;;;;;;;;;;;;;5073158;28;19932;-65
2024/04/08 06:43:56;;;;;;;;;;;;;;;;;;5089263;28;19935;-65
2024/04/08 06:46:23;;;;;;;;;;;;;;;;;;5087090;28;19927;-65
2024/04/08 06:48:48;;;;;;;;;;;;;;;;;;5091747;28;19924;-65
2024/04/08 06:51:14;;;;;;;;;;;;;;;;;;5091310;28;20347;-65
2024/04/08 06:53:40;;;;;;;;;;;;;;;;;;5092066;28;19969;-65
2024/04/08 06:56:06;;;;;;;;;;;;;;;;;;5073452;28;19920;-64
2024/04/08 06:58:32;;;;;;;;;;;;;;;;;;5070934;28;19969;-66
2024/04/08 07:00:58;;;;;;;;;;;;;;;;;;5092578;28;20298;-66
2024/04/08 07:03:24;;;;;;;;;;;;;;;;;;5072631;28;20014;-65
2024/04/08 07:05:50;;;;;;;;;;;;;;;;;;5074194;28;20014;-65
2024/04/08 07:08:17;;;;;;;;;;;;;;;;;;5085866;28;20018;-65
2024/04/08 07:10:45;;;;;;;;;;;;;;;;;;5095462;28;19927;-66
2024/04/08 07:13:11;;;;;;;;;;;;;;;;;;5097697;28;19928;-66
2024/04/08 07:15:37;;;;;;;;;;;;;;;;;;5086021;28;19931;-66
2024/04/08 07:18:03;;;;;;;;;;;;;;;;;;5089928;28;19931;-66
2024/04/08 07:20:30;;;;;;;;;;;;;;;;;;5103964;28;19920;-65
2024/04/08 07:22:56;;;;;;;;;;;;;;;;;;5096128;28;19938;-65
2024/04/08 07:25:22;;;;;;;;;;;;;;;;;;5090995;28;19931;-65
2024/04/08 07:27:48;;;;;;;;;;;;;;;;;;5090791;28;19924;-65
2024/04/08 07:30:14;;;;;;;;;;;;;;;;;;5078012;28;19921;-65
2024/04/08 07:32:40;;;;;;;;;;;;;;;;;;5108393;28;19928;-65
2024/04/08 07:35:06;;;;;;;;;;;;;;;;;;5097882;28;19924;-66
2024/04/08 07:37:32;;;;;;;;;;;;;;;;;;5091747;28;19920;-66
2024/04/08 07:39:58;;;;;;;;;;;;;;;;;;5103249;28;19972;-65
2024/04/08 07:42:24;;;;;;;;;;;;;;;;;;5103231;28;19931;-65
2024/04/08 07:44:51;;;;;;;;;;;;;;;;;;5097079;28;19919;-66
2024/04/08 07:47:17;;;;;;;;;;;;;;;;;;5089981;28;19932;-65
2024/04/08 07:49:43;;;;;;;;;;;;;;;;;;5102965;28;19927;-64
2024/04/08 07:52:10;;;;;;;;;;;;;;;;;;5092327;28;20033;-65
2024/04/08 07:54:36;;;;;;;;;;;;;;;;;;5094742;28;20314;-64
2024/04/08 07:57:02;;;;;;;;;;;;;;;;;;5071065;28;19959;-64
2024/04/08 07:59:28;;;;;;;;;;;;;;;;;;5093155;28;20437;-65
2024/04/08 08:01:55;;;;;;;;;;;;;;;;;;5097466;28;19959;-65
2024/04/08 08:04:21;;;;;;;;;;;;;;;;;;5099932;28;20113;-65
2024/04/08 08:06:47;;;;;;;;;;;;;;;;;;5090943;28;20451;-65
2024/04/08 08:09:13;;;;;;;;;;;;;;;;;;5084500;28;19928;-64
2024/04/08 08:11:39;;;;;;;;;;;;;;;;;;5103507;28;19969;-65
2024/04/08 08:14:05;;;;;;;;;;;;;;;;;;5093526;28;19924;-64
2024/04/08 08:16:31;;;;;;;;;;;;;;;;;;5081323;28;19927;-64
2024/04/08 08:18:57;;;;;;;;;;;;;;;;;;5062064;28;19997;-64
2024/04/08 08:21:22;;;;;;;;;;;;;;;;;;5094183;28;20013;-65
2024/04/08 08:23:48;;;;;;;;;;;;;;;;;;5090312;28;19920;-65
2024/04/08 08:26:14;;;;;;;;;;;;;;;;;;5091534;28;19926;-65
2024/04/08 08:28:41;;;;;;;;;;;;;;;;;;5090963;28;19928;-64
2024/04/08 08:31:07;;;;;;;;;;;;;;;;;;5096812;28;20452;-64
2024/04/08 08:33:33;;;;;;;;;;;;;;;;;;5104854;28;19924;-64
2024/04/08 08:35:59;;;;;;;;;;;;;;;;;;5106340;28;19928;-65
2024/04/08 08:38:25;;;;;;;;;;;;;;;;;;5072493;28;19920;-65
2024/04/08 08:40:51;;;;;;;;;;;;;;;;;;5096268;28;19920;-65
2024/04/08 08:43:17;;;;;;;;;;;;;;;;;;5100119;28;20682;-65
2024/04/08 08:45:49;;;;;;;;;;;;;;;;;;5077316;28;19924;-65
2024/04/08 08:48:15;;;;;;;;;;;;;;;;;;5107094;28;20586;-65
2024/04/08 08:50:41;;;;;;;;;;;;;;;;;;5081658;28;19920;-65
2024/04/08 08:53:07;;;;;;;;;;;;;;;;;;5080295;28;19959;-65
2024/04/08 08:55:33;;;;;;;;;;;;;;;;;;5097232;28;20359;-65
2024/04/08 08:57:59;;;;;;;;;;;;;;;;;;5075518;28;19930;-65
2024/04/08 09:00:24;;;;;;;;;;;;;;;;;;5072698;28;20026;-65
2024/04/08 09:02:51;;;;;;;;;;;;;;;;;;5091778;28;19927;-65
2024/04/08 09:05:17;;;;;;;;;;;;;;;;;;5092807;28;19923;-65
2024/04/08 09:07:43;;;;;;;;;;;;;;;;;;5093871;28;19943;-65
2024/04/08 09:10:09;;;;;;;;;;;;;;;;;;5106533;28;19923;-64
2024/04/08 09:12:35;;;;;;;;;;;;;;;;;;5084128;28;19924;-64
2024/04/08 09:15:00;;;;;;;;;;;;;;;;;;5097672;28;20526;-65
2024/04/08 09:17:26;;;;;;;;;;;;;;;;;;5104211;28;19920;-65
2024/04/08 09:19:52;;;;;;;;;;;;;;;;;;5101502;28;19965;-65
2024/04/08 09:22:18;;;;;;;;;;;;;;;;;;5093059;28;20454;-65
2024/04/08 09:24:44;;;;;;;;;;;;;;;;;;5094316;28;19926;-64
2024/04/08 09:27:10;;;;;;;;;;;;;;;;;;5094404;28;19924;-65
2024/04/08 09:29:36;;;;;;;;;;;;;;;;;;5064445;28;19974;-64
2024/04/08 09:32:02;;;;;;;;;;;;;;;;;;5072831;28;20428;-65
2024/04/08 09:34:28;;;;;;;;;;;;;;;;;;5093050;28;19924;-64
2024/04/08 09:36:54;;;;;;;;;;;;;;;;;;5091764;28;19924;-65
2024/04/08 09:39:20;;;;;;;;;;;;;;;;;;5087536;28;20322;-64
2024/04/08 09:41:45;;;;;;;;;;;;;;;;;;5092336;28;19928;-64
2024/04/08 09:44:11;;;;;;;;;;;;;;;;;;5073381;28;19927;-66
2024/04/08 09:46:37;;;;;;;;;;;;;;;;;;5087616;28;19950;-65
2024/04/08 09:49:03;;;;;;;;;;;;;;;;;;5105934;28;19973;-65
2024/04/08 09:51:29;;;;;;;;;;;;;;;;;;5082025;28;19920;-65
2024/04/08 09:53:55;;;;;;;;;;;;;;;;;;5079875;28;19928;-66
2024/04/08 09:56:21;;;;;;;;;;;;;;;;;;5113280;28;19924;-65
2024/04/08 09:58:47;;;;;;;;;;;;;;;;;;5107788;28;20050;-65
2024/04/08 10:01:13;;;;;;;;;;;;;;;;;;5088424;28;19923;-65
2024/04/08 10:03:39;;;;;;;;;;;;;;;;;;5085802;28;19928;-65
2024/04/08 10:06:05;;;;;;;;;;;;;;;;;;5090677;28;19930;-65
2024/04/08 10:08:31;;;;;;;;;;;;;;;;;;5088556;28;19951;-65
2024/04/08 10:10:57;;;;;;;;;;;;;;;;;;5074988;28;19924;-65
2024/04/08 10:13:23;;;;;;;;;;;;;;;;;;5071987;28;19925;-65
2024/04/08 10:15:50;;;;;;;;;;;;;;;;;;5079781;28;19920;-66
2024/04/08 10:18:16;;;;;;;;;;;;;;;;;;5090611;28;19920;-66
2024/04/08 10:20:42;;;;;;;;;;;;;;;;;;5090650;28;19989;-66
2024/04/08 10:23:08;;;;;;;;;;;;;;;;;;5076663;28;20023;-66
2024/04/08 10:25:34;;;;;;;;;;;;;;;;;;5070367;28;20003;-66
2024/04/08 10:28:00;;;;;;;;;;;;;;;;;;5090315;28;19924;-66
2024/04/08 10:30:26;;;;;;;;;;;;;;;;;;5085530;28;20403;-65
2024/04/08 10:32:52;;;;;;;;;;;;;;;;;;5080072;28;19924;-66
2024/04/08 10:35:18;;;;;;;;;;;;;;;;;;5071001;28;19963;-66
2024/04/08 10:37:43;;;;;;;;;;;;;;;;;;5094792;28;19938;-65
2024/04/08 10:40:09;;;;;;;;;;;;;;;;;;5082695;28;20298;-65
2024/04/08 10:42:35;;;;;;;;;;;;;;;;;;5090202;28;19939;-66
2024/04/08 10:45:01;;;;;;;;;;;;;;;;;;5081242;28;19920;-66
2024/04/08 10:47:27;;;;;;;;;;;;;;;;;;5079978;28;19951;-65
2024/04/08 10:49:53;;;;;;;;;;;;;;;;;;5083990;28;20462;-65
2024/04/08 10:52:19;;;;;;;;;;;;;;;;;;5089839;28;19924;-66
2024/04/08 10:54:45;;;;;;;;;;;;;;;;;;5070516;28;19920;-65
2024/04/08 10:57:11;;;;;;;;;;;;;;;;;;5082254;28;19920;-65
2024/04/08 10:59:37;;;;;;;;;;;;;;;;;;5063019;28;19932;-65
2024/04/08 11:02:03;;;;;;;;;;;;;;;;;;5088617;28;19978;-64
2024/04/08 11:04:29;;;;;;;;;;;;;;;;;;5087760;28;20080;-66
2024/04/08 11:06:55;;;;;;;;;;;;;;;;;;5090024;28;19924;-64
2024/04/08 11:09:21;;;;;;;;;;;;;;;;;;5071549;28;19932;-64
2024/04/08 11:11:47;;;;;;;;;;;;;;;;;;5055294;28;19928;-64
2024/04/08 11:14:13;;;;;;;;;;;;;;;;;;5081647;28;19920;-64
2024/04/08 11:16:39;;;;;;;;;;;;;;;;;;5080721;28;20345;-65
2024/04/08 11:19:06;;;;;;;;;;;;;;;;;;5088834;28;19937;-65
2024/04/08 11:21:32;;;;;;;;;;;;;;;;;;5091443;28;20378;-65
2024/04/08 11:23:57;;;;;;;;;;;;;;;;;;5091514;28;20031;-64
2024/04/08 11:26:23;;;;;;;;;;;;;;;;;;5067747;28;20011;-65
2024/04/08 11:28:49;;;;;;;;;;;;;;;;;;5085712;28;19950;-65
2024/04/08 11:31:15;;;;;;;;;;;;;;;;;;5089166;28;19927;-65
2024/04/08 11:33:41;;;;;;;;;;;;;;;;;;5086385;28;19924;-65
2024/04/08 11:36:07;;;;;;;;;;;;;;;;;;5072936;28;19931;-65
2024/04/08 11:38:33;;;;;;;;;;;;;;;;;;5073682;28;19920;-64
2024/04/08 11:40:59;;;;;;;;;;;;;;;;;;5091071;28;19920;-64
2024/04/08 11:43:25;;;;;;;;;;;;;;;;;;5088309;28;19978;-64
2024/04/08 11:45:51;;;;;;;;;;;;;;;;;;5082643;28;19920;-64
2024/04/08 11:48:18;;;;;;;;;;;;;;;;;;5086435;28;19928;-64
2024/04/08 11:50:44;;;;;;;;;;;;;;;;;;5084159;28;19924;-64
2024/04/08 11:53:10;;;;;;;;;;;;;;;;;;5079095;28;19920;-65
2024/04/08 11:55:37;;;;;;;;;;;;;;;;;;5078028;28;21862;-65
2024/04/08 11:58:03;;;;;;;;;;;;;;;;;;5074126;28;20445;-64
2024/04/08 12:00:29;;;;;;;;;;;;;;;;;;5075706;28;19920;-64
2024/04/08 12:02:55;;;;;;;;;;;;;;;;;;5086334;28;20040;-64
2024/04/08 12:05:21;;;;;;;;;;;;;;;;;;5088801;28;19924;-65
2024/04/08 12:07:47;;;;;;;;;;;;;;;;;;5084289;28;20365;-65
2024/04/08 12:10:13;;;;;;;;;;;;;;;;;;5089730;28;19943;-65
2024/04/08 12:12:40;;;;;;;;;;;;;;;;;;5090862;28;20347;-65
2024/04/08 12:15:06;;;;;;;;;;;;;;;;;;5064098;28;19964;-64
2024/04/08 12:17:32;;;;;;;;;;;;;;;;;;5072114;28;19928;-64
2024/04/08 12:19:57;;;;;;;;;;;;;;;;;;5094416;28;19924;-64
2024/04/08 12:22:23;;;;;;;;;;;;;;;;;;5099535;28;20355;-64
2024/04/08 12:24:49;;;;;;;;;;;;;;;;;;5089566;28;19920;-65
2024/04/08 12:27:15;;;;;;;;;;;;;;;;;;5090951;28;19924;-65
2024/04/08 12:29:41;;;;;;;;;;;;;;;;;;5093786;28;19935;-65
2024/04/08 12:32:07;;;;;;;;;;;;;;;;;;5104826;28;20374;-65
2024/04/08 12:34:33;;;;;;;;;;;;;;;;;;5106521;28;19922;-65
2024/04/08 12:36:59;;;;;;;;;;;;;;;;;;5104326;28;19928;-65
2024/04/08 12:39:25;;;;;;;;;;;;;;;;;;5093883;28;19935;-65
2024/04/08 12:41:51;;;;;;;;;;;;;;;;;;5104038;28;19927;-65
2024/04/08 12:44:17;;;;;;;;;;;;;;;;;;5092700;28;19935;-65
2024/04/08 12:46:43;;;;;;;;;;;;;;;;;;5087299;28;20381;-65
2024/04/08 12:49:09;;;;;;;;;;;;;;;;;;5106106;28;19967;-65
2024/04/08 12:51:35;;;;;;;;;;;;;;;;;;5094939;28;19920;-65
2024/04/08 12:54:01;;;;;;;;;;;;;;;;;;5093966;28;19924;-65
2024/04/08 12:56:27;;;;;;;;;;;;;;;;;;5104514;28;19931;-64
2024/04/08 12:58:56;;;;;;;;;;;;;;;;;;5105257;28;20274;-64
2024/04/08 13:01:22;;;;;;;;;;;;;;;;;;5100860;28;20061;-65
2024/04/08 13:03:47;;;;;;;;;;;;;;;;;;5092692;28;20006;-65
2024/04/08 13:06:13;;;;;;;;;;;;;;;;;;5091659;28;20006;-65
2024/04/08 13:08:39;;;;;;;;;;;;;;;;;;5103658;28;19932;-65
2024/04/08 13:11:05;;;;;;;;;;;;;;;;;;5096501;22;19928;-65
2024/04/08 13:13:31;;;;;;;;;;;;;;;;;;5052651;28;19921;-64
2024/04/08 13:15:57;;;;;;;;;;;;;;;;;;5037250;28;19936;-65
2024/04/08 13:18:23;;;;;;;;;;;;;;;;;;5039494;28;19925;-65
2024/04/08 13:20:49;;;;;;;;;;;;;;;;;;5062946;28;20371;-66
2024/04/08 13:23:15;;;;;;;;;;;;;;;;;;5073701;28;19920;-66
2024/04/08 13:25:41;;;;;;;;;;;;;;;;;;5067511;28;20394;-65
2024/04/08 13:28:07;;;;;;;;;;;;;;;;;;5046737;28;20430;-65
2024/04/08 13:30:32;;;;;;;;;;;;;;;;;;5038493;28;19996;-65
2024/04/08 13:32:58;;;;;;;;;;;;;;;;;;5064047;28;19921;-65
2024/04/08 13:35:24;;;;;;;;;;;;;;;;;;5053249;28;19975;-65
2024/04/08 13:37:50;;;;;;;;;;;;;;;;;;5055966;28;20329;-65
2024/04/08 13:40:16;;;;;;;;;;;;;;;;;;5062253;28;20189;-65
2024/04/08 13:42:42;;;;;;;;;;;;;;;;;;5067463;28;19921;-65
2024/04/08 13:45:08;;;;;;;;;;;;;;;;;;5067311;28;19928;-65
2024/04/08 13:47:34;;;;;;;;;;;;;;;;;;5068910;28;19920;-65
2024/04/08 13:50:00;;;;;;;;;;;;;;;;;;5046354;28;19973;-65
2024/04/08 13:52:26;;;;;;;;;;;;;;;;;;5052795;28;20029;-65
2024/04/08 13:54:52;;;;;;;;;;;;;;;;;;5033891;28;19974;-66
2024/04/08 13:57:18;;;;;;;;;;;;;;;;;;5046075;28;20371;-65
2024/04/08 13:59:44;;;;;;;;;;;;;;;;;;5033641;28;19924;-65
2024/04/08 14:02:10;;;;;;;;;;;;;;;;;;5070269;28;20007;-65
2024/04/08 14:04:36;;;;;;;;;;;;;;;;;;5051136;28;20291;-66
2024/04/08 14:07:03;;;;;;;;;;;;;;;;;;5050907;28;19966;-66
2024/04/08 14:09:29;;;;;;;;;;;;;;;;;;5063974;28;19933;-67
2024/04/08 14:11:55;;;;;;;;;;;;;;;;;;5045889;28;19924;-66
2024/04/08 14:14:21;;;;;;;;;;;;;;;;;;5073559;28;19927;-67
2024/04/08 14:16:47;;;;;;;;;;;;;;;;;;5084857;28;19928;-66
2024/04/08 14:19:13;;;;;;;;;;;;;;;;;;5062228;28;20264;-67
2024/04/08 14:21:39;;;;;;;;;;;;;;;;;;5092031;28;19920;-66
2024/04/08 14:24:05;;;;;;;;;;;;;;;;;;5073292;28;19928;-67
2024/04/08 14:26:31;;;;;;;;;;;;;;;;;;5071389;28;19928;-65
2024/04/08 14:28:57;;;;;;;;;;;;;;;;;;5044796;28;20367;-66
2024/04/08 14:31:22;;;;;;;;;;;;;;;;;;5079937;28;19920;-65
2024/04/08 14:33:48;;;;;;;;;;;;;;;;;;5052845;28;19935;-64
2024/04/08 14:36:14;;;;;;;;;;;;;;;;;;5081253;28;19924;-64
2024/04/08 14:38:41;;;;;;;;;;;;;;;;;;5078949;28;20301;-65
2024/04/08 14:41:08;;;;;;;;;;;;;;;;;;5080684;28;20451;-65
2024/04/08 14:43:34;;;;;;;;;;;;;;;;;;5081320;28;19928;-65
2024/04/08 14:46:01;;;;;;;;;;;;;;;;;;5049995;28;19924;-65
2024/04/08 14:48:27;;;;;;;;;;;;;;;;;;5052969;28;19928;-65
2024/04/08 14:50:52;;;;;;;;;;;;;;;;;;5065476;28;19920;-64
2024/04/08 14:53:19;;;;;;;;;;;;;;;;;;5069891;28;19920;-65
2024/04/08 14:55:45;;;;;;;;;;;;;;;;;;5065935;28;19924;-65
2024/04/08 14:58:11;;;;;;;;;;;;;;;;;;5068988;28;19924;-65
2024/04/08 15:00:37;;;;;;;;;;;;;;;;;;5077224;28;19989;-65
2024/04/08 15:03:03;;;;;;;;;;;;;;;;;;5091823;28;19924;-64
2024/04/08 15:05:29;;;;;;;;;;;;;;;;;;5080383;28;19946;-65
2024/04/08 15:07:55;;;;;;;;;;;;;;;;;;5070069;28;19921;-65
2024/04/08 15:10:21;;;;;;;;;;;;;;;;;;5085358;28;19930;-65
2024/04/08 15:12:48;;;;;;;;;;;;;;;;;;5090148;28;19927;-66
2024/04/08 15:15:14;;;;;;;;;;;;;;;;;;5076177;28;19920;-66
2024/04/08 15:17:41;;;;;;;;;;;;;;;;;;5058348;28;19988;-66
2024/04/08 15:20:07;;;;;;;;;;;;;;;;;;5074642;28;19924;-66
2024/04/08 15:23:59;;;;;;;;;;;;;;;;;;5502576;25;19932;-64
2024/04/08 15:26:27;;;;;;;;;;;;;;;;;;5501283;26;19927;-64
2024/04/08 15:28:54;;;;;;;;;;;;;;;;;;5490304;25;19956;-64
2024/04/08 15:31:21;;;;;;;;;;;;;;;;;;5478444;26;19929;-64
2024/04/08 15:33:48;;;;;;;;;;;;;;;;;;5432600;26;19960;-65
2024/04/08 15:36:15;;;;;;;;;;;;;;;;;;5458602;26;20290;-64
2024/04/08 15:38:42;;;;;;;;;;;;;;;;;;5494637;25;19959;-64
2024/04/08 15:41:09;;;;;;;;;;;;;;;;;;5484434;25;20515;-65
2024/04/08 15:43:37;;;;;;;;;;;;;;;;;;5496331;25;19934;-65
2024/04/08 15:46:04;;;;;;;;;;;;;;;;;;5464439;26;20370;-65
2024/04/08 15:48:31;;;;;;;;;;;;;;;;;;5465534;26;19928;-65
2024/04/08 15:50:58;;;;;;;;;;;;;;;;;;5472125;26;19976;-65
2024/04/08 15:53:25;;;;;;;;;;;;;;;;;;5487277;26;20306;-65
2024/04/08 15:55:52;;;;;;;;;;;;;;;;;;5459649;26;19935;-65
2024/04/08 15:58:19;;;;;;;;;;;;;;;;;;5477414;26;19963;-65
2024/04/08 16:00:46;;;;;;;;;;;;;;;;;;5479686;26;19936;-65
2024/04/08 16:03:14;;;;;;;;;;;;;;;;;;5469924;26;19928;-65
2024/04/08 16:05:41;;;;;;;;;;;;;;;;;;5476277;25;19929;-65
2024/04/08 16:08:09;;;;;;;;;;;;;;;;;;5438491;26;19936;-65
2024/04/08 16:10:36;;;;;;;;;;;;;;;;;;5430940;26;20366;-65
2024/04/08 16:13:04;;;;;;;;;;;;;;;;;;5453503;26;19928;-65
2024/04/08 16:15:37;;;;;;;;;;;;;;;;;;5430849;26;20242;-65
2024/04/08 16:18:04;;;;;;;;;;;;;;;;;;5473976;25;19934;-65
2024/04/08 16:20:31;;;;;;;;;;;;;;;;;;5497775;25;19987;-66
2024/04/08 16:22:58;;;;;;;;;;;;;;;;;;5450885;25;19936;-65
2024/04/08 16:25:25;;;;;;;;;;;;;;;;;;5467773;26;19929;-66
2024/04/08 16:27:54;;;;;;;;;;;;;;;;;;5456058;26;19934;-64
2024/04/08 16:30:21;;;;;;;;;;;;;;;;;;5465071;26;20910;-64
2024/04/08 16:32:49;;;;;;;;;;;;;;;;;;5465078;26;19971;-64
2024/04/08 16:35:16;;;;;;;;;;;;;;;;;;5473065;26;19928;-65
2024/04/08 16:37:43;;;;;;;;;;;;;;;;;;5462356;26;20283;-64
2024/04/08 16:40:10;;;;;;;;;;;;;;;;;;5451410;26;19935;-65